createdAt,value
2018-06-17T00:00:27.409Z,13.40
2018-06-17T00:02:56.287Z,13.40
2018-06-17T00:05:25.539Z,13.30
2018-06-17T00:07:54.476Z,13.20
2018-06-17T00:10:23.506Z,13.20
2018-06-17T00:12:52.162Z,13.20
2018-06-17T00:15:45.431Z,13.10
2018-06-17T00:18:14.323Z,13.10
2018-06-17T00:20:43.323Z,13.00
2018-06-17T00:23:12.034Z,13.00
2018-06-17T00:25:40.694Z,13.00
2018-06-17T00:28:09.616Z,12.90
2018-06-17T00:30:38.287Z,12.90
2018-06-17T00:33:06.949Z,12.90
2018-06-17T00:35:55.725Z,12.90
2018-06-17T00:38:25.157Z,12.80
2018-06-17T00:40:54.051Z,12.80
2018-06-17T00:43:22.925Z,12.80
2018-06-17T00:45:51.567Z,12.80
2018-06-17T00:48:20.177Z,12.70
2018-06-17T00:50:48.890Z,12.80
2018-06-17T00:53:19.445Z,12.70
2018-06-17T00:55:48.158Z,12.70
2018-06-17T00:58:37.521Z,12.60
2018-06-17T01:01:06.372Z,12.60
2018-06-17T01:03:35.289Z,12.60
2018-06-17T01:06:04.162Z,12.60
2018-06-17T01:08:32.865Z,12.60
2018-06-17T01:11:01.530Z,12.60
2018-06-17T01:13:30.249Z,12.70
2018-06-17T01:15:59.010Z,12.70
2018-06-17T01:18:27.697Z,12.60
2018-06-17T01:20:56.538Z,12.60
2018-06-17T01:23:25.663Z,12.60
2018-06-17T01:25:54.527Z,12.60
2018-06-17T01:28:23.144Z,12.60
2018-06-17T01:30:51.769Z,12.50
2018-06-17T01:33:29.225Z,12.50
2018-06-17T01:35:57.957Z,12.50
2018-06-17T01:41:03.124Z,12.60
2018-06-17T01:43:32.031Z,12.60
2018-06-17T01:46:01.255Z,12.70
2018-06-17T01:48:29.896Z,12.80
2018-06-17T01:50:58.757Z,12.80
2018-06-17T01:53:27.860Z,12.90
2018-06-17T01:55:56.520Z,12.90
2018-06-17T02:02:55.260Z,12.90
2018-06-17T02:08:21.419Z,13.00
2018-06-17T02:14:01.577Z,13.10
2018-06-17T02:16:58.548Z,13.10
2018-06-17T02:19:27.382Z,13.10
2018-06-17T02:24:35.145Z,13.10
2018-06-17T02:27:28.495Z,13.10
2018-06-17T02:29:57.302Z,13.10
2018-06-17T02:32:25.991Z,13.20
2018-06-17T02:34:55.077Z,13.20
2018-06-17T02:37:23.698Z,13.20
2018-06-17T02:39:52.370Z,13.20
2018-06-17T02:42:34.136Z,13.30
2018-06-17T02:45:33.366Z,13.30
2018-06-17T02:51:01.812Z,13.30
2018-06-17T02:54:30.317Z,13.40
2018-06-17T02:56:59.157Z,13.50
2018-06-17T03:02:35.644Z,13.60
2018-06-17T03:05:04.421Z,13.60
2018-06-17T03:07:33.184Z,13.60
2018-06-17T03:10:02.034Z,13.60
2018-06-17T03:12:30.754Z,13.70
2018-06-17T03:14:59.511Z,13.70
2018-06-17T03:17:28.261Z,13.70
2018-06-17T03:19:57.003Z,13.70
2018-06-17T03:22:25.653Z,13.70
2018-06-17T03:25:12.685Z,13.70
2018-06-17T03:27:46.580Z,13.70
2018-06-17T03:30:20.621Z,13.80
2018-06-17T03:33:03.797Z,13.80
2018-06-17T03:38:25.188Z,13.80
2018-06-17T03:40:53.951Z,13.70
2018-06-17T03:43:22.652Z,13.70
2018-06-17T03:45:51.586Z,13.80
2018-06-17T03:48:20.229Z,13.80
2018-06-17T03:50:48.982Z,13.80
2018-06-17T03:53:27.939Z,13.80
2018-06-17T03:56:00.369Z,13.90
2018-06-17T03:58:29.246Z,13.90
2018-06-17T04:00:57.942Z,13.90
2018-06-17T04:03:26.750Z,13.90
2018-06-17T04:05:55.814Z,14.00
2018-06-17T04:08:24.435Z,14.00
2018-06-17T04:10:53.295Z,14.00
2018-06-17T04:13:21.923Z,14.00
2018-06-17T04:15:50.794Z,14.00
2018-06-17T04:18:27.787Z,14.10
2018-06-17T04:20:56.707Z,14.10
2018-06-17T04:26:41.033Z,14.10
2018-06-17T04:30:04.993Z,14.10
2018-06-17T04:32:33.899Z,14.20
2018-06-17T04:35:02.776Z,14.20
2018-06-17T04:40:28.678Z,14.30
2018-06-17T04:45:57.289Z,14.40
2018-06-17T04:48:25.870Z,14.50
2018-06-17T04:50:54.870Z,14.50
2018-06-17T04:53:23.468Z,14.50
2018-06-17T04:55:53.416Z,14.60
2018-06-17T04:58:22.029Z,14.60
2018-06-17T05:00:52.822Z,14.60
2018-06-17T05:03:22.590Z,14.70
2018-06-17T05:05:57.649Z,14.70
2018-06-17T05:08:26.251Z,14.80
2018-06-17T05:10:55.372Z,14.80
2018-06-17T05:13:24.277Z,14.90
2018-06-17T05:15:53.033Z,15.00
2018-06-17T05:18:21.885Z,15.00
2018-06-17T05:20:50.721Z,15.00
2018-06-17T05:23:19.673Z,15.10
2018-06-17T05:25:49.050Z,15.00
2018-06-17T05:28:17.972Z,15.00
2018-06-17T05:30:47.065Z,15.10
2018-06-17T05:33:16.640Z,15.10
2018-06-17T05:35:45.459Z,15.10
2018-06-17T05:38:14.184Z,15.10
2018-06-17T05:40:43.485Z,15.10
2018-06-17T05:43:12.277Z,15.10
2018-06-17T05:45:40.971Z,15.10
2018-06-17T05:48:09.572Z,15.10
2018-06-17T05:50:56.526Z,15.10
2018-06-17T05:53:25.152Z,15.10
2018-06-17T05:55:53.850Z,15.20
2018-06-17T05:58:22.617Z,15.40
2018-06-17T06:00:51.271Z,15.60
2018-06-17T06:03:21.876Z,15.60
2018-06-17T06:05:50.572Z,15.60
2018-06-17T06:08:20.729Z,15.60
2018-06-17T06:10:49.329Z,15.60
2018-06-17T06:13:19.621Z,15.70
2018-06-17T06:15:48.354Z,15.60
2018-06-17T06:18:17.064Z,15.60
2018-06-17T06:20:45.987Z,15.70
2018-06-17T06:23:14.729Z,15.80
2018-06-17T06:25:43.637Z,15.80
2018-06-17T06:28:12.982Z,16.00
2018-06-17T06:30:41.605Z,16.30
2018-06-17T06:33:10.309Z,16.60
2018-06-17T06:35:39.018Z,17.00
2018-06-17T06:38:07.957Z,17.10
2018-06-17T06:40:36.649Z,17.20
2018-06-17T06:43:05.249Z,17.10
2018-06-17T06:45:34.030Z,17.10
2018-06-17T06:48:04.887Z,17.10
2018-06-17T06:50:33.703Z,17.20
2018-06-17T06:53:02.419Z,17.30
2018-06-17T06:55:31.155Z,17.20
2018-06-17T06:58:00.020Z,17.10
2018-06-17T07:00:28.757Z,17.10
2018-06-17T07:03:08.353Z,16.90
2018-06-17T07:05:47.907Z,16.90
2018-06-17T07:08:27.537Z,16.90
2018-06-17T07:10:56.235Z,17.00
2018-06-17T07:13:26.922Z,16.90
2018-06-17T07:16:06.718Z,16.90
2018-06-17T07:18:36.771Z,17.10
2018-06-17T07:21:17.670Z,17.20
2018-06-17T07:23:46.734Z,17.00
2018-06-17T07:26:58.384Z,16.90
2018-06-17T07:29:40.041Z,16.90
2018-06-17T07:32:09.274Z,16.80
2018-06-17T07:34:37.818Z,16.80
2018-06-17T07:37:06.666Z,16.90
2018-06-17T07:41:42.835Z,17.10
2018-06-17T07:44:11.328Z,17.10
2018-06-17T07:46:40.641Z,17.20
2018-06-17T07:49:31.640Z,17.30
2018-06-17T07:52:12.557Z,17.40
2018-06-17T07:54:42.018Z,17.40
2018-06-17T07:57:11.782Z,17.40
2018-06-17T07:59:40.441Z,17.40
2018-06-17T08:02:09.398Z,17.50
2018-06-17T08:04:38.143Z,17.60
2018-06-17T08:07:07.261Z,17.80
2018-06-17T08:09:35.942Z,17.70
2018-06-17T08:12:04.676Z,17.80
2018-06-17T08:14:33.265Z,17.80
2018-06-17T08:17:01.686Z,18.00
2018-06-17T08:19:30.517Z,18.00
2018-06-17T08:21:59.970Z,18.00
2018-06-17T08:24:29.017Z,18.20
2018-06-17T08:26:57.772Z,18.30
2018-06-17T08:29:26.509Z,18.70
2018-06-17T08:31:55.691Z,19.30
2018-06-17T08:34:24.200Z,19.70
2018-06-17T08:36:53.343Z,19.70
2018-06-17T08:39:23.006Z,19.70
2018-06-17T08:41:51.797Z,19.60
2018-06-17T08:44:20.837Z,19.20
2018-06-17T08:46:49.963Z,19.30
2018-06-17T08:49:19.149Z,19.00
2018-06-17T08:51:47.874Z,18.80
2018-06-17T08:54:16.724Z,18.90
2018-06-17T08:56:45.406Z,19.40
2018-06-17T08:59:13.831Z,19.40
2018-06-17T09:01:42.645Z,19.10
2018-06-17T09:04:11.385Z,19.20
2018-06-17T09:06:39.984Z,19.60
2018-06-17T09:09:11.016Z,19.70
2018-06-17T09:11:39.510Z,19.60
2018-06-17T09:14:08.275Z,19.40
2018-06-17T09:16:36.977Z,19.60
2018-06-17T09:19:05.821Z,19.70
2018-06-17T09:21:34.451Z,19.60
2018-06-17T09:24:03.189Z,19.60
2018-06-17T09:26:31.968Z,19.60
2018-06-17T09:29:00.803Z,19.60
2018-06-17T09:31:29.770Z,19.40
2018-06-17T09:33:58.495Z,19.50
2018-06-17T09:36:27.055Z,19.70
2018-06-17T09:38:55.775Z,19.90
2018-06-17T09:41:24.659Z,19.80
2018-06-17T09:43:53.834Z,19.70
2018-06-17T09:46:22.337Z,19.60
2018-06-17T09:48:51.030Z,19.80
2018-06-17T09:51:19.619Z,19.70
2018-06-17T09:53:48.194Z,19.70
2018-06-17T09:56:16.776Z,19.70
2018-06-17T09:58:45.336Z,19.80
2018-06-17T10:01:13.859Z,19.60
2018-06-17T10:03:42.633Z,19.60
2018-06-17T10:06:11.275Z,19.50
2018-06-17T10:08:39.937Z,19.60
2018-06-17T10:11:08.676Z,19.30
2018-06-17T10:13:41.513Z,18.80
2018-06-17T10:16:10.414Z,18.80
2018-06-17T10:18:39.333Z,18.40
2018-06-17T10:21:08.604Z,18.40
2018-06-17T10:23:37.406Z,18.40
2018-06-17T10:26:06.208Z,18.50
2018-06-17T10:28:35.193Z,18.30
2018-06-17T10:31:05.456Z,17.80
2018-06-17T10:33:34.856Z,17.80
2018-06-17T10:36:03.906Z,17.70
2018-06-17T10:38:32.822Z,17.50
2018-06-17T10:41:01.536Z,17.70
2018-06-17T10:43:31.322Z,17.50
2018-06-17T10:46:00.028Z,17.60
2018-06-17T10:48:28.855Z,17.10
2018-06-17T10:50:57.559Z,16.80
2018-06-17T10:53:26.141Z,16.80
2018-06-17T10:55:54.978Z,16.90
2018-06-17T10:58:26.721Z,16.90
2018-06-17T11:00:55.309Z,17.10
2018-06-17T11:03:23.805Z,17.30
2018-06-17T11:05:52.767Z,17.30
2018-06-17T11:08:21.410Z,17.50
2018-06-17T11:10:50.202Z,17.60
2018-06-17T11:13:19.054Z,17.60
2018-06-17T11:15:47.841Z,17.80
2018-06-17T11:18:16.398Z,17.60
2018-06-17T11:20:45.094Z,17.30
2018-06-17T11:23:13.897Z,17.50
2018-06-17T11:25:42.529Z,17.60
2018-06-17T11:28:10.926Z,17.70
2018-06-17T11:30:39.842Z,17.20
2018-06-17T11:33:08.395Z,16.90
2018-06-17T11:35:37.162Z,16.60
2018-06-17T11:38:05.700Z,16.40
2018-06-17T11:40:35.109Z,16.70
2018-06-17T11:43:05.101Z,16.70
2018-06-17T11:45:35.524Z,16.70
2018-06-17T11:48:04.094Z,17.20
2018-06-17T11:50:34.919Z,17.20
2018-06-17T11:53:03.856Z,17.50
2018-06-17T11:55:32.568Z,17.40
2018-06-17T11:58:01.414Z,17.50
2018-06-17T12:00:30.317Z,17.40
2018-06-17T12:02:59.243Z,17.30
2018-06-17T12:05:27.677Z,17.20
2018-06-17T12:07:56.137Z,17.10
2018-06-17T12:10:25.310Z,17.20
2018-06-17T12:12:53.894Z,17.20
2018-06-17T12:15:22.650Z,17.10
2018-06-17T12:17:51.388Z,17.00
2018-06-17T12:20:20.457Z,17.10
2018-06-17T12:22:49.165Z,17.30
2018-06-17T12:25:17.939Z,17.50
2018-06-17T12:27:46.735Z,17.50
2018-06-17T12:30:15.317Z,17.50
2018-06-17T12:32:44.252Z,17.30
2018-06-17T12:35:12.873Z,17.50
2018-06-17T12:37:41.533Z,17.20
2018-06-17T12:40:10.276Z,17.50
2018-06-17T12:42:38.897Z,17.90
2018-06-17T12:45:07.572Z,17.80
2018-06-17T12:47:36.310Z,17.80
2018-06-17T12:50:05.200Z,18.10
2018-06-17T12:52:33.726Z,18.10
2018-06-17T12:55:02.181Z,17.70
2018-06-17T12:57:31.148Z,17.60
2018-06-17T13:00:00.238Z,17.10
2018-06-17T13:02:28.954Z,16.90
2018-06-17T13:04:57.481Z,16.90
2018-06-17T13:07:26.478Z,16.90
2018-06-17T13:09:55.005Z,16.80
2018-06-17T13:12:23.794Z,16.70
2018-06-17T13:14:52.359Z,17.00
2018-06-17T13:17:21.643Z,17.30
2018-06-17T13:19:50.343Z,17.10
2018-06-17T13:22:19.430Z,17.20
2018-06-17T13:24:47.893Z,17.10
2018-06-17T13:27:16.560Z,17.00
2018-06-17T13:29:45.210Z,17.50
2018-06-17T13:32:13.905Z,17.70
2018-06-17T13:34:43.083Z,17.80
2018-06-17T13:37:11.625Z,17.50
2018-06-17T13:39:40.494Z,17.30
2018-06-17T13:42:09.238Z,17.40
2018-06-17T13:44:38.055Z,16.90
2018-06-17T13:47:07.053Z,16.90
2018-06-17T13:49:35.703Z,17.00
2018-06-17T13:52:04.496Z,17.20
2018-06-17T13:54:33.422Z,16.90
2018-06-17T13:57:02.030Z,17.00
2018-06-17T13:59:30.785Z,17.00
2018-06-17T14:01:59.292Z,16.90
2018-06-17T14:04:27.820Z,17.10
2018-06-17T14:06:57.707Z,17.20
2018-06-17T14:09:26.398Z,17.20
2018-06-17T14:11:55.184Z,17.00
2018-06-17T14:14:23.630Z,16.60
2018-06-17T14:16:52.359Z,16.70
2018-06-17T14:19:20.818Z,16.70
2018-06-17T14:21:49.668Z,16.70
2018-06-17T14:24:18.394Z,16.60
2018-06-17T14:26:47.513Z,16.40
2018-06-17T14:29:16.365Z,16.20
2018-06-17T14:31:44.855Z,16.40
2018-06-17T14:34:13.278Z,16.50
2018-06-17T14:36:41.707Z,16.70
2018-06-17T14:39:12.037Z,16.70
2018-06-17T14:41:40.730Z,16.60
2018-06-17T14:44:14.598Z,16.70
2018-06-17T14:46:48.597Z,17.10
2018-06-17T14:49:22.657Z,17.30
2018-06-17T14:51:55.525Z,17.30
2018-06-17T14:54:24.860Z,17.40
2018-06-17T14:56:54.317Z,17.70
2018-06-17T14:59:23.130Z,18.00
2018-06-17T15:01:51.610Z,18.20
2018-06-17T15:04:20.258Z,18.00
2018-06-17T15:06:48.817Z,18.10
2018-06-17T15:09:17.649Z,17.60
2018-06-17T15:11:46.172Z,17.00
2018-06-17T15:14:14.855Z,17.30
2018-06-17T15:16:43.445Z,17.20
2018-06-17T15:19:12.202Z,17.50
2018-06-17T15:21:40.701Z,17.60
2018-06-17T15:24:09.618Z,17.60
2018-06-17T15:26:38.357Z,17.40
2018-06-17T15:29:06.924Z,17.00
2018-06-17T15:31:40.917Z,17.40
2018-06-17T15:34:14.677Z,17.70
2018-06-17T15:36:48.827Z,17.80
2018-06-17T15:39:22.874Z,17.90
2018-06-17T15:41:53.329Z,18.00
2018-06-17T15:44:22.354Z,18.00
2018-06-17T15:46:51.354Z,18.00
2018-06-17T15:49:19.912Z,18.00
2018-06-17T15:51:49.067Z,18.00
2018-06-17T15:54:17.753Z,17.60
2018-06-17T15:56:46.466Z,17.40
2018-06-17T15:59:15.323Z,17.50
2018-06-17T16:01:44.123Z,17.70
2018-06-17T16:04:13.258Z,17.50
2018-06-17T16:06:41.996Z,17.40
2018-06-17T16:09:12.361Z,17.80
2018-06-17T16:11:46.190Z,18.10
2018-06-17T16:14:20.537Z,17.70
2018-06-17T16:16:54.240Z,17.70
2018-06-17T16:19:27.957Z,17.90
2018-06-17T16:21:57.851Z,18.10
2018-06-17T16:24:27.062Z,18.10
2018-06-17T16:26:55.730Z,18.30
2018-06-17T16:29:24.435Z,18.40
2018-06-17T16:31:53.378Z,18.40
2018-06-17T16:34:22.133Z,18.20
2018-06-17T16:36:50.999Z,18.30
2018-06-17T16:39:19.633Z,18.40
2018-06-17T16:41:48.870Z,18.30
2018-06-17T16:44:21.110Z,18.30
2018-06-17T16:46:49.941Z,18.20
2018-06-17T16:49:18.641Z,18.10
2018-06-17T16:53:58.413Z,18.00
2018-06-17T16:56:32.667Z,17.80
2018-06-17T16:59:06.545Z,18.00
2018-06-17T17:01:35.437Z,17.60
2018-06-17T17:04:03.931Z,17.70
2018-06-17T17:06:32.734Z,17.50
2018-06-17T17:09:01.410Z,17.70
2018-06-17T17:11:32.310Z,18.00
2018-06-17T17:14:02.863Z,18.20
2018-06-17T17:16:31.990Z,18.30
2018-06-17T17:19:00.871Z,18.30
2018-06-17T17:21:29.633Z,18.20
2018-06-17T17:24:00.341Z,18.10
2018-06-17T17:26:29.148Z,18.00
2018-06-17T17:28:57.821Z,17.80
2018-06-17T17:31:30.765Z,17.80
2018-06-17T17:34:05.574Z,17.60
2018-06-17T17:36:39.691Z,17.50
2018-06-17T17:39:13.766Z,17.50
2018-06-17T17:41:45.989Z,17.60
2018-06-17T17:44:17.751Z,17.70
2018-06-17T17:46:52.770Z,17.80
2018-06-17T17:49:21.880Z,17.80
2018-06-17T17:51:50.884Z,17.90
2018-06-17T17:54:20.991Z,17.80
2018-06-17T17:56:49.930Z,17.80
2018-06-17T17:59:28.565Z,17.80
2018-06-17T18:01:58.336Z,17.90
2018-06-17T18:04:27.037Z,17.90
2018-06-17T18:07:09.279Z,17.80
2018-06-17T18:09:38.648Z,17.60
2018-06-17T18:12:08.828Z,17.50
2018-06-17T18:14:37.615Z,17.50
2018-06-17T18:17:07.057Z,17.30
2018-06-17T18:19:35.807Z,17.10
2018-06-17T18:22:04.598Z,17.00
2018-06-17T18:24:34.230Z,16.80
2018-06-17T18:27:08.317Z,16.90
2018-06-17T18:29:47.825Z,16.90
2018-06-17T18:32:21.631Z,16.90
2018-06-17T18:34:55.646Z,17.00
2018-06-17T18:37:24.938Z,17.00
2018-06-17T18:39:54.013Z,17.00
2018-06-17T18:42:22.913Z,17.10
2018-06-17T18:44:52.013Z,17.10
2018-06-17T18:47:22.131Z,17.00
2018-06-17T18:49:50.950Z,16.90
2018-06-17T18:52:19.881Z,16.90
2018-06-17T18:54:48.925Z,16.90
2018-06-17T18:57:19.566Z,17.00
2018-06-17T18:59:48.525Z,16.80
2018-06-17T19:02:17.237Z,16.80
2018-06-17T19:07:20.462Z,16.70
2018-06-17T19:09:54.494Z,16.60
2018-06-17T19:12:28.687Z,16.50
2018-06-17T19:15:02.416Z,16.50
2018-06-17T19:17:37.091Z,16.50
2018-06-17T19:20:06.692Z,16.40
2018-06-17T19:22:35.866Z,16.40
2018-06-17T19:25:05.035Z,16.40
2018-06-17T19:27:36.301Z,16.30
2018-06-17T19:30:08.000Z,16.30
2018-06-17T19:32:39.686Z,16.30
2018-06-17T19:35:08.825Z,16.20
2018-06-17T19:37:42.835Z,16.20
2018-06-17T19:40:14.202Z,16.10
2018-06-17T19:42:46.273Z,16.10
2018-06-17T19:45:15.485Z,16.10
2018-06-17T19:47:44.265Z,16.10
2018-06-17T19:50:18.326Z,16.10
2018-06-17T19:52:52.429Z,16.00
2018-06-17T19:55:26.501Z,16.00
2018-06-17T19:58:09.543Z,15.90
2018-06-17T20:00:40.864Z,15.90
2018-06-17T20:03:09.513Z,15.90
2018-06-17T20:05:38.243Z,15.90
2018-06-17T20:08:07.084Z,15.90
2018-06-17T20:10:35.714Z,15.90
2018-06-17T20:13:05.078Z,15.90
2018-06-17T20:15:33.941Z,15.90
2018-06-17T20:18:14.476Z,15.80
2018-06-17T20:20:43.799Z,15.80
2018-06-17T20:23:16.229Z,15.80
2018-06-17T20:25:53.867Z,15.70
2018-06-17T20:31:05.974Z,15.70
2018-06-17T20:36:33.934Z,15.70
2018-06-17T20:39:07.727Z,15.70
2018-06-17T20:41:58.387Z,15.70
2018-06-17T20:44:27.273Z,15.60
2018-06-17T20:50:22.192Z,15.60
2018-06-17T20:55:52.841Z,15.50
2018-06-17T21:01:29.406Z,15.20
2018-06-17T21:03:58.167Z,15.10
2018-06-17T21:06:26.982Z,15.10
2018-06-17T21:09:20.912Z,15.00
2018-06-17T21:11:50.099Z,14.90
2018-06-17T21:14:52.354Z,14.80
2018-06-17T21:17:21.362Z,14.80
2018-06-17T21:19:59.117Z,14.70
2018-06-17T21:23:04.880Z,14.60
2018-06-17T21:25:38.770Z,14.50
2018-06-17T21:31:20.954Z,14.40
2018-06-17T21:33:49.724Z,14.40
2018-06-17T21:36:18.503Z,14.30
2018-06-17T21:38:47.407Z,14.30
2018-06-17T21:41:23.168Z,14.40
2018-06-17T21:43:54.128Z,14.40
2018-06-17T21:49:12.902Z,14.50
2018-06-17T21:51:41.822Z,14.50
2018-06-17T21:54:11.602Z,14.50
2018-06-17T21:56:40.393Z,14.50
2018-06-17T21:59:09.097Z,14.50
2018-06-17T22:01:38.057Z,14.50
2018-06-17T22:04:11.847Z,14.50
2018-06-17T22:12:01.485Z,14.50
2018-06-17T22:14:52.999Z,14.50
2018-06-17T22:17:52.732Z,14.40
2018-06-17T22:20:21.706Z,14.40
2018-06-17T22:22:50.573Z,14.30
2018-06-17T22:25:20.840Z,14.30
2018-06-17T22:30:55.993Z,14.30
2018-06-17T22:33:24.858Z,14.20
2018-06-17T22:38:47.230Z,14.10
2018-06-17T22:41:16.087Z,14.10
2018-06-17T22:46:49.321Z,14.10
2018-06-17T22:49:35.257Z,14.20
2018-06-17T22:54:57.977Z,14.10
2018-06-17T22:57:32.895Z,14.10
2018-06-17T23:00:06.870Z,14.20
2018-06-17T23:03:01.186Z,14.20
2018-06-17T23:05:37.283Z,14.20
2018-06-17T23:08:11.369Z,14.30
2018-06-17T23:10:40.177Z,14.30
2018-06-17T23:13:16.571Z,14.30
2018-06-17T23:15:45.417Z,14.30
2018-06-17T23:18:14.223Z,14.40
2018-06-17T23:20:42.951Z,14.40
2018-06-17T23:23:11.638Z,14.50
2018-06-17T23:25:40.390Z,14.50
2018-06-17T23:28:09.066Z,14.40
2018-06-17T23:30:37.830Z,14.50
2018-06-17T23:33:11.848Z,14.50
2018-06-17T23:35:41.982Z,14.50
2018-06-17T23:38:10.756Z,14.50
2018-06-17T23:40:40.358Z,14.50
2018-06-17T23:43:09.302Z,14.50
2018-06-17T23:45:44.727Z,14.60
2018-06-17T23:48:19.746Z,14.60
2018-06-17T23:50:53.786Z,14.60
2018-06-17T23:53:27.625Z,14.50
2018-06-17T23:56:02.776Z,14.50
2018-06-17T23:58:31.595Z,14.50
